sensor_id;sensor_type;location;lat;lon;timestamp;temperature;humidity
75451;DHT22;64029;48.244;9.188;2023-04-25T00:00:27;5.30;76.00
75451;DHT22;64029;48.244;9.188;2023-04-25T00:02:53;5.30;75.10
75451;DHT22;64029;48.244;9.188;2023-04-25T00:05:22;5.30;73.70
75451;DHT22;64029;48.244;9.188;2023-04-25T00:07:49;5.30;75.20
75451;DHT22;64029;48.244;9.188;2023-04-25T00:10:16;5.30;74.90
75451;DHT22;64029;48.244;9.188;2023-04-25T00:12:44;5.30;75.50
75451;DHT22;64029;48.244;9.188;2023-04-25T00:15:11;5.30;75.20
75451;DHT22;64029;48.244;9.188;2023-04-25T00:17:38;5.30;74.80
75451;DHT22;64029;48.244;9.188;2023-04-25T00:20:06;5.30;74.00
75451;DHT22;64029;48.244;9.188;2023-04-25T00:22:35;5.30;74.70
75451;DHT22;64029;48.244;9.188;2023-04-25T00:25:03;5.30;76.30
75451;DHT22;64029;48.244;9.188;2023-04-25T00:27:30;5.30;76.90
75451;DHT22;64029;48.244;9.188;2023-04-25T00:29:59;5.30;77.00
75451;DHT22;64029;48.244;9.188;2023-04-25T00:32:26;5.30;77.50
75451;DHT22;64029;48.244;9.188;2023-04-25T00:34:54;5.30;75.50
75451;DHT22;64029;48.244;9.188;2023-04-25T00:37:21;5.30;75.40
75451;DHT22;64029;48.244;9.188;2023-04-25T00:39:48;5.30;77.40
75451;DHT22;64029;48.244;9.188;2023-04-25T00:42:15;5.30;77.20
75451;DHT22;64029;48.244;9.188;2023-04-25T00:44:42;5.30;76.50
75451;DHT22;64029;48.244;9.188;2023-04-25T00:47:11;5.30;76.20
75451;DHT22;64029;48.244;9.188;2023-04-25T00:49:38;5.30;76.60
75451;DHT22;64029;48.244;9.188;2023-04-25T00:52:05;5.30;77.40
75451;DHT22;64029;48.244;9.188;2023-04-25T00:54:32;5.30;77.80
75451;DHT22;64029;48.244;9.188;2023-04-25T00:56:59;5.40;78.50
75451;DHT22;64029;48.244;9.188;2023-04-25T00:59:27;5.40;78.50
75451;DHT22;64029;48.244;9.188;2023-04-25T01:01:55;5.30;78.70
75451;DHT22;64029;48.244;9.188;2023-04-25T01:04:23;5.30;77.30
75451;DHT22;64029;48.244;9.188;2023-04-25T01:06:51;5.30;76.50
75451;DHT22;64029;48.244;9.188;2023-04-25T01:09:18;5.30;76.20
75451;DHT22;64029;48.244;9.188;2023-04-25T01:11:46;5.30;77.60
75451;DHT22;64029;48.244;9.188;2023-04-25T01:14:13;5.30;77.50
75451;DHT22;64029;48.244;9.188;2023-04-25T01:16:40;5.40;78.40
75451;DHT22;64029;48.244;9.188;2023-04-25T01:19:09;5.30;77.60
75451;DHT22;64029;48.244;9.188;2023-04-25T01:21:38;5.30;76.90
75451;DHT22;64029;48.244;9.188;2023-04-25T01:24:06;5.30;76.40
75451;DHT22;64029;48.244;9.188;2023-04-25T01:26:35;5.30;76.10
75451;DHT22;64029;48.244;9.188;2023-04-25T01:29:03;5.30;76.90
75451;DHT22;64029;48.244;9.188;2023-04-25T01:31:31;5.30;76.60
75451;DHT22;64029;48.244;9.188;2023-04-25T01:33:58;5.20;76.30
75451;DHT22;64029;48.244;9.188;2023-04-25T01:36:25;5.20;76.00
75451;DHT22;64029;48.244;9.188;2023-04-25T01:38:56;5.20;76.50
75451;DHT22;64029;48.244;9.188;2023-04-25T01:41:23;5.20;76.00
75451;DHT22;64029;48.244;9.188;2023-04-25T01:43:50;5.20;75.70
75451;DHT22;64029;48.244;9.188;2023-04-25T01:46:17;5.20;75.40
75451;DHT22;64029;48.244;9.188;2023-04-25T01:48:44;5.20;75.70
75451;DHT22;64029;48.244;9.188;2023-04-25T01:51:11;5.20;76.70
75451;DHT22;64029;48.244;9.188;2023-04-25T01:53:39;5.20;78.10
75451;DHT22;64029;48.244;9.188;2023-04-25T01:56:07;5.20;78.60
75451;DHT22;64029;48.244;9.188;2023-04-25T01:58:34;5.20;77.50
75451;DHT22;64029;48.244;9.188;2023-04-25T02:01:01;5.10;76.80
75451;DHT22;64029;48.244;9.188;2023-04-25T02:03:30;5.20;77.80
75451;DHT22;64029;48.244;9.188;2023-04-25T02:05:57;5.10;76.90
75451;DHT22;64029;48.244;9.188;2023-04-25T02:08:24;5.20;76.80
75451;DHT22;64029;48.244;9.188;2023-04-25T02:10:52;5.20;77.20
75451;DHT22;64029;48.244;9.188;2023-04-25T02:13:20;5.20;76.80
75451;DHT22;64029;48.244;9.188;2023-04-25T02:15:47;5.20;77.60
75451;DHT22;64029;48.244;9.188;2023-04-25T02:18:17;5.20;77.20
75451;DHT22;64029;48.244;9.188;2023-04-25T02:20:44;5.20;77.60
75451;DHT22;64029;48.244;9.188;2023-04-25T02:23:11;5.30;77.80
75451;DHT22;64029;48.244;9.188;2023-04-25T02:25:37;5.20;77.10
75451;DHT22;64029;48.244;9.188;2023-04-25T02:28:04;5.20;76.80
75451;DHT22;64029;48.244;9.188;2023-04-25T02:30:32;5.20;78.80
75451;DHT22;64029;48.244;9.188;2023-04-25T02:33:00;5.20;78.70
75451;DHT22;64029;48.244;9.188;2023-04-25T02:35:27;5.10;79.50
75451;DHT22;64029;48.244;9.188;2023-04-25T02:37:54;5.10;78.70
75451;DHT22;64029;48.244;9.188;2023-04-25T02:40:21;5.10;78.30
75451;DHT22;64029;48.244;9.188;2023-04-25T02:42:47;5.10;78.10
75451;DHT22;64029;48.244;9.188;2023-04-25T02:45:14;5.10;78.00
75451;DHT22;64029;48.244;9.188;2023-04-25T02:47:43;5.10;77.60
75451;DHT22;64029;48.244;9.188;2023-04-25T02:50:10;5.10;77.20
75451;DHT22;64029;48.244;9.188;2023-04-25T02:52:36;5.10;77.20
75451;DHT22;64029;48.244;9.188;2023-04-25T02:55:04;5.10;77.20
75451;DHT22;64029;48.244;9.188;2023-04-25T02:57:31;5.10;77.40
75451;DHT22;64029;48.244;9.188;2023-04-25T02:59:58;5.10;77.10
75451;DHT22;64029;48.244;9.188;2023-04-25T03:02:24;5.10;79.40
75451;DHT22;64029;48.244;9.188;2023-04-25T03:04:52;5.10;79.20
75451;DHT22;64029;48.244;9.188;2023-04-25T03:07:19;5.10;77.90
75451;DHT22;64029;48.244;9.188;2023-04-25T03:09:46;5.10;80.40
75451;DHT22;64029;48.244;9.188;2023-04-25T03:12:13;5.10;80.70
75451;DHT22;64029;48.244;9.188;2023-04-25T03:14:40;5.10;80.90
75451;DHT22;64029;48.244;9.188;2023-04-25T03:17:06;5.10;80.90
75451;DHT22;64029;48.244;9.188;2023-04-25T03:19:33;5.10;81.10
75451;DHT22;64029;48.244;9.188;2023-04-25T03:22:01;5.10;81.50
75451;DHT22;64029;48.244;9.188;2023-04-25T03:24:28;5.10;79.60
75451;DHT22;64029;48.244;9.188;2023-04-25T03:26:55;5.10;78.90
75451;DHT22;64029;48.244;9.188;2023-04-25T03:29:22;5.00;78.70
75451;DHT22;64029;48.244;9.188;2023-04-25T03:31:51;5.00;78.80
75451;DHT22;64029;48.244;9.188;2023-04-25T03:34:18;5.00;80.80
75451;DHT22;64029;48.244;9.188;2023-04-25T03:36:46;5.00;81.00
75451;DHT22;64029;48.244;9.188;2023-04-25T03:39:15;4.90;80.80
75451;DHT22;64029;48.244;9.188;2023-04-25T03:41:41;4.90;80.50
75451;DHT22;64029;48.244;9.188;2023-04-25T03:44:08;4.90;80.30
75451;DHT22;64029;48.244;9.188;2023-04-25T03:46:35;4.90;79.30
75451;DHT22;64029;48.244;9.188;2023-04-25T03:49:02;4.80;78.90
75451;DHT22;64029;48.244;9.188;2023-04-25T03:51:29;4.80;78.80
75451;DHT22;64029;48.244;9.188;2023-04-25T03:53:56;4.80;78.50
75451;DHT22;64029;48.244;9.188;2023-04-25T03:56:24;4.80;78.50
75451;DHT22;64029;48.244;9.188;2023-04-25T03:58:51;4.80;78.30
75451;DHT22;64029;48.244;9.188;2023-04-25T04:01:18;4.70;78.10
75451;DHT22;64029;48.244;9.188;2023-04-25T04:03:45;4.70;77.90
75451;DHT22;64029;48.244;9.188;2023-04-25T04:06:11;4.80;78.10
75451;DHT22;64029;48.244;9.188;2023-04-25T04:08:38;4.80;77.70
75451;DHT22;64029;48.244;9.188;2023-04-25T04:11:05;4.70;77.80
75451;DHT22;64029;48.244;9.188;2023-04-25T04:13:33;4.70;78.20
75451;DHT22;64029;48.244;9.188;2023-04-25T04:16:00;4.70;78.00
75451;DHT22;64029;48.244;9.188;2023-04-25T04:18:27;4.70;78.10
75451;DHT22;64029;48.244;9.188;2023-04-25T04:20:54;4.70;79.30
75451;DHT22;64029;48.244;9.188;2023-04-25T04:23:21;4.60;79.20
75451;DHT22;64029;48.244;9.188;2023-04-25T04:25:48;4.60;80.60
75451;DHT22;64029;48.244;9.188;2023-04-25T04:28:15;4.60;80.50
75451;DHT22;64029;48.244;9.188;2023-04-25T04:30:44;4.60;80.20
75451;DHT22;64029;48.244;9.188;2023-04-25T04:33:12;4.60;80.80
75451;DHT22;64029;48.244;9.188;2023-04-25T04:35:40;4.60;79.60
75451;DHT22;64029;48.244;9.188;2023-04-25T04:38:08;4.60;78.80
75451;DHT22;64029;48.244;9.188;2023-04-25T04:40:36;4.60;78.50
75451;DHT22;64029;48.244;9.188;2023-04-25T04:43:03;4.60;79.50
75451;DHT22;64029;48.244;9.188;2023-04-25T04:45:30;4.50;78.70
75451;DHT22;64029;48.244;9.188;2023-04-25T04:47:58;4.50;79.90
75451;DHT22;64029;48.244;9.188;2023-04-25T04:50:25;4.60;81.00
75451;DHT22;64029;48.244;9.188;2023-04-25T04:52:52;4.60;81.20
75451;DHT22;64029;48.244;9.188;2023-04-25T04:55:20;4.50;79.70
75451;DHT22;64029;48.244;9.188;2023-04-25T04:57:47;4.50;78.90
75451;DHT22;64029;48.244;9.188;2023-04-25T05:00:15;4.50;78.50
75451;DHT22;64029;48.244;9.188;2023-04-25T05:02:42;4.50;78.40
75451;DHT22;64029;48.244;9.188;2023-04-25T05:05:10;4.50;78.30
75451;DHT22;64029;48.244;9.188;2023-04-25T05:07:37;4.50;78.10
75451;DHT22;64029;48.244;9.188;2023-04-25T05:10:05;4.50;77.90
75451;DHT22;64029;48.244;9.188;2023-04-25T05:12:32;4.50;78.50
75451;DHT22;64029;48.244;9.188;2023-04-25T05:14:58;4.50;80.90
75451;DHT22;64029;48.244;9.188;2023-04-25T05:17:25;4.50;79.60
75451;DHT22;64029;48.244;9.188;2023-04-25T05:19:52;4.50;79.10
75451;DHT22;64029;48.244;9.188;2023-04-25T05:22:20;4.60;79.40
75451;DHT22;64029;48.244;9.188;2023-04-25T05:24:47;4.70;79.10
75451;DHT22;64029;48.244;9.188;2023-04-25T05:27:16;4.70;79.50
75451;DHT22;64029;48.244;9.188;2023-04-25T05:29:43;4.70;79.50
75451;DHT22;64029;48.244;9.188;2023-04-25T05:32:10;4.70;79.60
75451;DHT22;64029;48.244;9.188;2023-04-25T05:34:36;4.70;79.70
75451;DHT22;64029;48.244;9.188;2023-04-25T05:37:03;4.70;79.20
75451;DHT22;64029;48.244;9.188;2023-04-25T05:39:31;4.70;79.00
75451;DHT22;64029;48.244;9.188;2023-04-25T05:41:58;4.70;79.40
75451;DHT22;64029;48.244;9.188;2023-04-25T05:44:26;4.80;80.30
75451;DHT22;64029;48.244;9.188;2023-04-25T05:46:53;4.80;80.40
75451;DHT22;64029;48.244;9.188;2023-04-25T05:49:20;4.80;80.80
75451;DHT22;64029;48.244;9.188;2023-04-25T05:51:47;4.80;80.20
75451;DHT22;64029;48.244;9.188;2023-04-25T05:54:14;4.90;81.50
75451;DHT22;64029;48.244;9.188;2023-04-25T05:56:42;4.90;81.90
75451;DHT22;64029;48.244;9.188;2023-04-25T05:59:12;4.90;82.00
75451;DHT22;64029;48.244;9.188;2023-04-25T06:01:38;5.00;82.40
75451;DHT22;64029;48.244;9.188;2023-04-25T06:04:05;5.00;82.80
75451;DHT22;64029;48.244;9.188;2023-04-25T06:06:32;5.00;82.30
75451;DHT22;64029;48.244;9.188;2023-04-25T06:08:59;5.10;82.80
75451;DHT22;64029;48.244;9.188;2023-04-25T06:11:26;5.10;82.90
75451;DHT22;64029;48.244;9.188;2023-04-25T06:13:54;5.10;82.70
75451;DHT22;64029;48.244;9.188;2023-04-25T06:16:21;5.10;82.10
75451;DHT22;64029;48.244;9.188;2023-04-25T06:18:48;5.10;81.60
75451;DHT22;64029;48.244;9.188;2023-04-25T06:21:14;5.20;82.00
75451;DHT22;64029;48.244;9.188;2023-04-25T06:23:41;5.20;81.60
75451;DHT22;64029;48.244;9.188;2023-04-25T06:26:08;5.20;81.40
75451;DHT22;64029;48.244;9.188;2023-04-25T06:28:35;5.30;80.70
75451;DHT22;64029;48.244;9.188;2023-04-25T06:31:03;5.30;80.90
75451;DHT22;64029;48.244;9.188;2023-04-25T06:33:30;5.30;80.90
75451;DHT22;64029;48.244;9.188;2023-04-25T06:35:57;5.40;80.60
75451;DHT22;64029;48.244;9.188;2023-04-25T06:38:24;5.40;79.70
75451;DHT22;64029;48.244;9.188;2023-04-25T06:40:50;5.50;79.90
75451;DHT22;64029;48.244;9.188;2023-04-25T06:43:17;5.50;80.10
75451;DHT22;64029;48.244;9.188;2023-04-25T06:45:44;5.50;80.70
75451;DHT22;64029;48.244;9.188;2023-04-25T06:48:13;5.60;79.80
75451;DHT22;64029;48.244;9.188;2023-04-25T06:50:39;5.60;80.10
75451;DHT22;64029;48.244;9.188;2023-04-25T06:53:06;5.70;80.40
75451;DHT22;64029;48.244;9.188;2023-04-25T06:55:34;5.70;80.60
75451;DHT22;64029;48.244;9.188;2023-04-25T06:58:01;5.80;80.80
75451;DHT22;64029;48.244;9.188;2023-04-25T07:00:28;5.80;80.80
75451;DHT22;64029;48.244;9.188;2023-04-25T07:02:55;5.90;80.20
75451;DHT22;64029;48.244;9.188;2023-04-25T07:05:24;5.90;80.70
75451;DHT22;64029;48.244;9.188;2023-04-25T07:07:50;6.00;81.00
75451;DHT22;64029;48.244;9.188;2023-04-25T07:10:17;6.00;81.10
75451;DHT22;64029;48.244;9.188;2023-04-25T07:12:44;6.10;81.10
75451;DHT22;64029;48.244;9.188;2023-04-25T07:15:11;6.10;81.40
75451;DHT22;64029;48.244;9.188;2023-04-25T07:17:38;6.10;81.20
75451;DHT22;64029;48.244;9.188;2023-04-25T07:20:06;6.20;81.40
75451;DHT22;64029;48.244;9.188;2023-04-25T07:22:36;6.20;81.40
75451;DHT22;64029;48.244;9.188;2023-04-25T07:25:02;6.20;81.20
75451;DHT22;64029;48.244;9.188;2023-04-25T07:27:29;6.30;81.70
75451;DHT22;64029;48.244;9.188;2023-04-25T07:29:56;6.30;81.40
75451;DHT22;64029;48.244;9.188;2023-04-25T07:32:23;6.30;81.30
75451;DHT22;64029;48.244;9.188;2023-04-25T07:34:50;6.40;81.40
75451;DHT22;64029;48.244;9.188;2023-04-25T07:37:17;6.30;81.00
75451;DHT22;64029;48.244;9.188;2023-04-25T07:39:46;6.40;81.30
75451;DHT22;64029;48.244;9.188;2023-04-25T07:42:13;6.40;81.10
75451;DHT22;64029;48.244;9.188;2023-04-25T07:44:40;6.50;81.40
75451;DHT22;64029;48.244;9.188;2023-04-25T07:47:08;6.50;81.30
75451;DHT22;64029;48.244;9.188;2023-04-25T07:49:36;6.50;81.90
75451;DHT22;64029;48.244;9.188;2023-04-25T07:52:04;6.60;81.30
75451;DHT22;64029;48.244;9.188;2023-04-25T07:54:31;6.60;81.60
75451;DHT22;64029;48.244;9.188;2023-04-25T07:56:59;6.60;81.20
75451;DHT22;64029;48.244;9.188;2023-04-25T07:59:27;6.60;81.20
75451;DHT22;64029;48.244;9.188;2023-04-25T08:01:54;6.70;80.90
75451;DHT22;64029;48.244;9.188;2023-04-25T08:04:22;6.70;81.10
75451;DHT22;64029;48.244;9.188;2023-04-25T08:06:50;6.70;81.10
75451;DHT22;64029;48.244;9.188;2023-04-25T08:09:18;6.70;81.20
75451;DHT22;64029;48.244;9.188;2023-04-25T08:11:44;6.80;81.00
75451;DHT22;64029;48.244;9.188;2023-04-25T08:14:13;6.80;81.00
75451;DHT22;64029;48.244;9.188;2023-04-25T08:16:40;6.80;80.80
75451;DHT22;64029;48.244;9.188;2023-04-25T08:19:07;6.80;80.80
75451;DHT22;64029;48.244;9.188;2023-04-25T08:21:34;6.80;80.80
75451;DHT22;64029;48.244;9.188;2023-04-25T08:24:01;6.80;81.10
75451;DHT22;64029;48.244;9.188;2023-04-25T08:26:28;6.90;81.10
75451;DHT22;64029;48.244;9.188;2023-04-25T08:28:55;6.90;81.10
75451;DHT22;64029;48.244;9.188;2023-04-25T08:31:24;6.90;80.80
75451;DHT22;64029;48.244;9.188;2023-04-25T08:33:51;7.00;80.60
75451;DHT22;64029;48.244;9.188;2023-04-25T08:36:18;7.00;80.60
75451;DHT22;64029;48.244;9.188;2023-04-25T08:38:47;7.00;80.40
75451;DHT22;64029;48.244;9.188;2023-04-25T08:41:16;7.00;80.40
75451;DHT22;64029;48.244;9.188;2023-04-25T08:43:44;7.00;80.20
75451;DHT22;64029;48.244;9.188;2023-04-25T08:46:12;7.00;80.10
75451;DHT22;64029;48.244;9.188;2023-04-25T08:48:44;7.00;80.10
75451;DHT22;64029;48.244;9.188;2023-04-25T08:51:18;7.00;80.10
75451;DHT22;64029;48.244;9.188;2023-04-25T08:53:49;6.90;80.90
75451;DHT22;64029;48.244;9.188;2023-04-25T08:56:17;7.00;80.40
75451;DHT22;64029;48.244;9.188;2023-04-25T08:58:47;7.00;80.10
75451;DHT22;64029;48.244;9.188;2023-04-25T09:01:14;7.00;80.90
75451;DHT22;64029;48.244;9.188;2023-04-25T09:03:43;7.10;80.70
75451;DHT22;64029;48.244;9.188;2023-04-25T09:06:11;7.10;80.40
75451;DHT22;64029;48.244;9.188;2023-04-25T09:08:38;7.10;80.40
75451;DHT22;64029;48.244;9.188;2023-04-25T09:11:06;7.10;83.00
75451;DHT22;64029;48.244;9.188;2023-04-25T09:13:33;7.00;82.30
75451;DHT22;64029;48.244;9.188;2023-04-25T09:16:00;7.10;81.60
75451;DHT22;64029;48.244;9.188;2023-04-25T09:18:28;7.20;81.20
75451;DHT22;64029;48.244;9.188;2023-04-25T09:20:58;7.20;80.80
75451;DHT22;64029;48.244;9.188;2023-04-25T09:23:31;7.10;81.60
75451;DHT22;64029;48.244;9.188;2023-04-25T09:26:07;7.00;80.40
75451;DHT22;64029;48.244;9.188;2023-04-25T09:28:34;6.80;80.00
75451;DHT22;64029;48.244;9.188;2023-04-25T09:31:03;6.70;79.90
75451;DHT22;64029;48.244;9.188;2023-04-25T09:33:31;6.60;80.60
75451;DHT22;64029;48.244;9.188;2023-04-25T09:36:04;6.60;80.60
75451;DHT22;64029;48.244;9.188;2023-04-25T09:38:33;6.60;80.30
75451;DHT22;64029;48.244;9.188;2023-04-25T09:41:06;6.80;80.20
75451;DHT22;64029;48.244;9.188;2023-04-25T09:43:32;6.80;79.80
75451;DHT22;64029;48.244;9.188;2023-04-25T09:46:00;6.60;79.80
75451;DHT22;64029;48.244;9.188;2023-04-25T09:48:28;6.70;79.80
75451;DHT22;64029;48.244;9.188;2023-04-25T09:51:06;6.60;79.70
75451;DHT22;64029;48.244;9.188;2023-04-25T09:53:34;6.50;79.50
75451;DHT22;64029;48.244;9.188;2023-04-25T09:56:04;6.40;78.50
75451;DHT22;64029;48.244;9.188;2023-04-25T09:58:32;6.20;78.80
75451;DHT22;64029;48.244;9.188;2023-04-25T10:01:00;6.20;79.10
75451;DHT22;64029;48.244;9.188;2023-04-25T10:03:30;6.10;78.40
75451;DHT22;64029;48.244;9.188;2023-04-25T10:05:59;6.10;78.80
75451;DHT22;64029;48.244;9.188;2023-04-25T10:08:31;6.20;78.40
75451;DHT22;64029;48.244;9.188;2023-04-25T10:11:00;6.30;78.10
75451;DHT22;64029;48.244;9.188;2023-04-25T10:13:28;6.40;78.00
75451;DHT22;64029;48.244;9.188;2023-04-25T10:15:56;6.20;78.20
75451;DHT22;64029;48.244;9.188;2023-04-25T10:18:24;6.20;77.80
75451;DHT22;64029;48.244;9.188;2023-04-25T10:20:52;6.20;77.60
75451;DHT22;64029;48.244;9.188;2023-04-25T10:23:20;6.00;77.40
75451;DHT22;64029;48.244;9.188;2023-04-25T10:25:49;5.80;78.50
75451;DHT22;64029;48.244;9.188;2023-04-25T10:28:16;5.80;78.40
75451;DHT22;64029;48.244;9.188;2023-04-25T10:30:57;5.90;78.30
75451;DHT22;64029;48.244;9.188;2023-04-25T10:33:32;6.00;78.00
75451;DHT22;64029;48.244;9.188;2023-04-25T10:35:59;6.20;78.00
75451;DHT22;64029;48.244;9.188;2023-04-25T10:38:34;6.10;77.70
75451;DHT22;64029;48.244;9.188;2023-04-25T10:41:04;6.10;77.80
75451;DHT22;64029;48.244;9.188;2023-04-25T10:43:36;6.10;77.80
75451;DHT22;64029;48.244;9.188;2023-04-25T10:46:13;6.10;77.90
75451;DHT22;64029;48.244;9.188;2023-04-25T10:48:45;6.20;78.00
75451;DHT22;64029;48.244;9.188;2023-04-25T10:51:17;6.10;78.10
75451;DHT22;64029;48.244;9.188;2023-04-25T10:53:44;6.20;78.10
75451;DHT22;64029;48.244;9.188;2023-04-25T10:56:17;6.10;77.40
75451;DHT22;64029;48.244;9.188;2023-04-25T10:58:44;6.10;78.90
75451;DHT22;64029;48.244;9.188;2023-04-25T11:01:12;6.10;78.30
75451;DHT22;64029;48.244;9.188;2023-04-25T11:03:43;6.30;78.10
75451;DHT22;64029;48.244;9.188;2023-04-25T11:06:20;6.20;78.20
75451;DHT22;64029;48.244;9.188;2023-04-25T11:08:50;6.20;78.20
75451;DHT22;64029;48.244;9.188;2023-04-25T11:11:18;6.20;78.10
75451;DHT22;64029;48.244;9.188;2023-04-25T11:13:48;6.10;78.60
75451;DHT22;64029;48.244;9.188;2023-04-25T11:16:16;6.20;78.60
75451;DHT22;64029;48.244;9.188;2023-04-25T11:18:43;6.30;78.50
75451;DHT22;64029;48.244;9.188;2023-04-25T11:21:10;6.40;78.50
75451;DHT22;64029;48.244;9.188;2023-04-25T11:23:38;6.40;79.10
75451;DHT22;64029;48.244;9.188;2023-04-25T11:26:05;6.30;78.90
75451;DHT22;64029;48.244;9.188;2023-04-25T11:28:34;6.30;78.90
75451;DHT22;64029;48.244;9.188;2023-04-25T11:31:02;6.40;78.70
75451;DHT22;64029;48.244;9.188;2023-04-25T11:33:30;6.40;78.50
75451;DHT22;64029;48.244;9.188;2023-04-25T11:35:57;6.40;78.30
75451;DHT22;64029;48.244;9.188;2023-04-25T11:38:25;6.30;78.90
75451;DHT22;64029;48.244;9.188;2023-04-25T11:40:52;6.40;78.80
75451;DHT22;64029;48.244;9.188;2023-04-25T11:43:20;6.40;79.40
75451;DHT22;64029;48.244;9.188;2023-04-25T11:45:50;6.30;79.50
75451;DHT22;64029;48.244;9.188;2023-04-25T11:48:18;6.50;79.20
75451;DHT22;64029;48.244;9.188;2023-04-25T11:50:45;6.60;79.40
75451;DHT22;64029;48.244;9.188;2023-04-25T11:53:12;6.50;79.50
75451;DHT22;64029;48.244;9.188;2023-04-25T11:55:39;6.60;79.20
75451;DHT22;64029;48.244;9.188;2023-04-25T11:58:06;6.60;79.30
75451;DHT22;64029;48.244;9.188;2023-04-25T12:00:34;6.60;79.60
75451;DHT22;64029;48.244;9.188;2023-04-25T12:03:03;6.60;79.40
75451;DHT22;64029;48.244;9.188;2023-04-25T12:05:31;6.70;80.20
75451;DHT22;64029;48.244;9.188;2023-04-25T12:08:09;6.60;80.50
75451;DHT22;64029;48.244;9.188;2023-04-25T12:10:37;6.80;80.80
75451;DHT22;64029;48.244;9.188;2023-04-25T12:13:18;6.90;80.40
75451;DHT22;64029;48.244;9.188;2023-04-25T12:15:45;6.90;80.30
75451;DHT22;64029;48.244;9.188;2023-04-25T12:18:14;6.90;80.20
75451;DHT22;64029;48.244;9.188;2023-04-25T12:20:41;6.80;79.50
75451;DHT22;64029;48.244;9.188;2023-04-25T12:23:08;6.90;79.90
75451;DHT22;64029;48.244;9.188;2023-04-25T12:25:39;7.00;80.60
75451;DHT22;64029;48.244;9.188;2023-04-25T12:28:14;7.00;80.90
75451;DHT22;64029;48.244;9.188;2023-04-25T12:30:54;7.00;80.20
75451;DHT22;64029;48.244;9.188;2023-04-25T12:33:23;7.10;80.70
75451;DHT22;64029;48.244;9.188;2023-04-25T12:35:50;7.10;80.10
75451;DHT22;64029;48.244;9.188;2023-04-25T12:38:24;7.10;79.90
75451;DHT22;64029;48.244;9.188;2023-04-25T12:40:51;7.10;79.60
75451;DHT22;64029;48.244;9.188;2023-04-25T12:43:18;7.00;79.60
75451;DHT22;64029;48.244;9.188;2023-04-25T12:45:47;7.00;80.00
75451;DHT22;64029;48.244;9.188;2023-04-25T12:48:14;7.10;79.80
75451;DHT22;64029;48.244;9.188;2023-04-25T12:50:43;7.10;79.90
75451;DHT22;64029;48.244;9.188;2023-04-25T12:56:23;7.30;80.40
75451;DHT22;64029;48.244;9.188;2023-04-25T12:58:52;7.40;80.10
75451;DHT22;64029;48.244;9.188;2023-04-25T13:01:22;7.30;79.70
75451;DHT22;64029;48.244;9.188;2023-04-25T13:04:00;7.40;79.90
75451;DHT22;64029;48.244;9.188;2023-04-25T13:06:29;7.40;79.10
75451;DHT22;64029;48.244;9.188;2023-04-25T13:08:56;7.40;79.70
75451;DHT22;64029;48.244;9.188;2023-04-25T13:11:25;7.50;79.20
75451;DHT22;64029;48.244;9.188;2023-04-25T13:13:52;7.70;79.40
75451;DHT22;64029;48.244;9.188;2023-04-25T13:16:19;7.60;79.10
75451;DHT22;64029;48.244;9.188;2023-04-25T13:18:49;7.60;79.10
75451;DHT22;64029;48.244;9.188;2023-04-25T13:21:16;7.70;79.70
75451;DHT22;64029;48.244;9.188;2023-04-25T13:23:45;7.70;78.60
75451;DHT22;64029;48.244;9.188;2023-04-25T13:26:13;7.60;77.30
75451;DHT22;64029;48.244;9.188;2023-04-25T13:28:40;7.60;77.60
75451;DHT22;64029;48.244;9.188;2023-04-25T13:31:07;7.70;79.10
75451;DHT22;64029;48.244;9.188;2023-04-25T13:33:33;7.80;77.90
75451;DHT22;64029;48.244;9.188;2023-04-25T13:36:01;7.80;77.60
75451;DHT22;64029;48.244;9.188;2023-04-25T13:38:28;7.90;77.10
75451;DHT22;64029;48.244;9.188;2023-04-25T13:40:57;7.90;77.60
75451;DHT22;64029;48.244;9.188;2023-04-25T13:43:24;7.80;77.30
75451;DHT22;64029;48.244;9.188;2023-04-25T13:45:51;7.80;76.30
75451;DHT22;64029;48.244;9.188;2023-04-25T13:48:18;7.90;76.40
75451;DHT22;64029;48.244;9.188;2023-04-25T13:50:45;8.00;77.50
75451;DHT22;64029;48.244;9.188;2023-04-25T13:53:12;8.10;77.30
75451;DHT22;64029;48.244;9.188;2023-04-25T13:55:39;8.20;77.40
75451;DHT22;64029;48.244;9.188;2023-04-25T13:58:13;8.20;77.30
75451;DHT22;64029;48.244;9.188;2023-04-25T14:00:40;8.30;76.90
75451;DHT22;64029;48.244;9.188;2023-04-25T14:03:09;8.30;76.80
75451;DHT22;64029;48.244;9.188;2023-04-25T14:05:37;8.40;76.80
75451;DHT22;64029;48.244;9.188;2023-04-25T14:08:07;8.40;76.80
75451;DHT22;64029;48.244;9.188;2023-04-25T14:10:34;8.10;76.10
75451;DHT22;64029;48.244;9.188;2023-04-25T14:13:01;8.10;77.10
75451;DHT22;64029;48.244;9.188;2023-04-25T14:15:31;8.00;77.00
75451;DHT22;64029;48.244;9.188;2023-04-25T14:17:58;7.90;77.50
75451;DHT22;64029;48.244;9.188;2023-04-25T14:20:25;7.90;77.70
75451;DHT22;64029;48.244;9.188;2023-04-25T14:22:54;7.90;77.90
75451;DHT22;64029;48.244;9.188;2023-04-25T14:25:22;7.80;77.50
75451;DHT22;64029;48.244;9.188;2023-04-25T14:27:48;7.90;77.50
75451;DHT22;64029;48.244;9.188;2023-04-25T14:30:16;7.80;76.90
75451;DHT22;64029;48.244;9.188;2023-04-25T14:32:44;7.80;77.70
75451;DHT22;64029;48.244;9.188;2023-04-25T14:35:11;7.80;77.00
75451;DHT22;64029;48.244;9.188;2023-04-25T14:37:38;7.90;77.00
75451;DHT22;64029;48.244;9.188;2023-04-25T14:40:06;7.90;77.20
75451;DHT22;64029;48.244;9.188;2023-04-25T14:42:36;7.90;77.20
75451;DHT22;64029;48.244;9.188;2023-04-25T14:45:03;7.80;77.30
75451;DHT22;64029;48.244;9.188;2023-04-25T14:47:30;7.80;77.40
75451;DHT22;64029;48.244;9.188;2023-04-25T14:49:58;7.80;77.80
75451;DHT22;64029;48.244;9.188;2023-04-25T14:52:25;7.80;77.80
75451;DHT22;64029;48.244;9.188;2023-04-25T14:54:52;7.80;78.10
75451;DHT22;64029;48.244;9.188;2023-04-25T14:57:19;7.80;78.30
75451;DHT22;64029;48.244;9.188;2023-04-25T14:59:46;7.70;78.10
75451;DHT22;64029;48.244;9.188;2023-04-25T15:02:12;7.80;78.50
75451;DHT22;64029;48.244;9.188;2023-04-25T15:04:39;7.70;80.00
75451;DHT22;64029;48.244;9.188;2023-04-25T15:07:07;7.90;78.90
75451;DHT22;64029;48.244;9.188;2023-04-25T15:09:34;7.90;79.30
75451;DHT22;64029;48.244;9.188;2023-04-25T15:12:02;7.90;78.70
75451;DHT22;64029;48.244;9.188;2023-04-25T15:14:29;7.80;79.70
75451;DHT22;64029;48.244;9.188;2023-04-25T15:16:56;7.80;79.40
75451;DHT22;64029;48.244;9.188;2023-04-25T15:19:23;7.90;79.20
75451;DHT22;64029;48.244;9.188;2023-04-25T15:21:50;7.90;79.40
75451;DHT22;64029;48.244;9.188;2023-04-25T15:24:18;8.00;78.70
75451;DHT22;64029;48.244;9.188;2023-04-25T15:26:45;8.00;79.60
75451;DHT22;64029;48.244;9.188;2023-04-25T15:29:12;8.00;79.80
75451;DHT22;64029;48.244;9.188;2023-04-25T15:31:39;8.00;80.60
75451;DHT22;64029;48.244;9.188;2023-04-25T15:34:06;8.10;79.20
75451;DHT22;64029;48.244;9.188;2023-04-25T15:36:32;8.20;79.20
75451;DHT22;64029;48.244;9.188;2023-04-25T15:38:59;8.20;78.60
75451;DHT22;64029;48.244;9.188;2023-04-25T15:41:30;8.10;79.30
75451;DHT22;64029;48.244;9.188;2023-04-25T15:43:59;8.10;78.20
75451;DHT22;64029;48.244;9.188;2023-04-25T15:46:26;8.20;77.90
75451;DHT22;64029;48.244;9.188;2023-04-25T15:48:53;8.10;77.30
75451;DHT22;64029;48.244;9.188;2023-04-25T15:51:19;8.20;77.60